Flight Track Log - Related Links

Times and Time Zones

All times are in EDT time to prevent confusion due to time zone crossing. See the N46KJ flight status page for this flight to view local times or setup timezone preferences in your user account.

Time Position Orientation Groundspeed Altitude Reporting Facility
EDT Latitude Longitude Course Direction KTS MPH feet Rate Location/Type
Sun 01:45:19 PM 41.2558 -75.6172 275° West 197 227 14,400  Level New Center
Sun 01:46:19 PM 41.2611 -75.6947 275° West 197 227 14,400  Level New Center
Sun 01:47:19 PM 41.2625 -75.7611 272° West 197 227 14,400  Level New Center
Sun 01:48:17 PM 41.2653 -75.8386 273° West 197 227 14,400  Level New Center
Sun 01:49:18 PM 41.2708 -75.9081 276° West 197 227 14,400  Level New Center
Sun 01:50:19 PM 41.2742 -75.9719 274° West 197 227 14,400  Level New Center
Sun 01:51:19 PM 41.2775 -76.0411 274° West 197 227 14,400  Level New Center
Sun 01:52:19 PM 41.2822 -76.1189 275° West 199 229 14,400  Level New Center
Sun 01:53:17 PM 41.2853 -76.1908 273° West 199 229 14,400  Level New Center
Sun 01:54:17 PM 41.2883 -76.2575 274° West 199 229 14,400  Level New Center
Sun 01:55:18 PM 41.2933 -76.3297 275° West 199 229 14,400  Level New Center
Sun 01:56:18 PM 41.2961 -76.4072 273° West 199 229 14,400  Level New Center
Sun 01:57:18 PM 41.2989 -76.4792 273° West 199 229 14,400  Level New Center
Sun 01:58:19 PM 41.3036 -76.5514 275° West 199 229 14,400  Level New Center
Sun 01:59:19 PM 41.3067 -76.6153 274° West 199 229 14,400  Level New Center
Sun 02:00:17 PM 41.3089 -76.6983 272° West 207 238 14,400  Level New Center
Sun 02:01:17 PM 41.3133 -76.7733 275° West 207 238 14,400  Level New Center
Sun 02:02:18 PM 41.3181 -76.8456 275° West 207 238 14,400  Level New Center
Sun 02:03:18 PM 41.3208 -76.9147 273° West 197 227 14,400  Level New Center
Sun 02:04:20 PM 41.3233 -76.9869 273° West 197 227 14,400  Level New Center
Sun 02:05:18 PM 41.3261 -77.0508 273° West 197 227 14,400  Level New Center
Sun 02:07:48 PM 41.3336 -77.2342 273° West 200 230 14,400  Level Cleveland Center
Sun 02:08:48 PM 41.3378 -77.3086 274° West 200 230 14,400  Level Cleveland Center
Sun 02:09:48 PM 41.3400 -77.3858 272° West 200 230 14,400  Level Cleveland Center
Sun 02:10:48 PM 41.3442 -77.4575 274° West 200 230 14,400 50 Level Cleveland Center
Sun 02:11:48 PM 41.3481 -77.5294 274° West 200 230 14,500  Climbing Cleveland Center
Sun 02:12:48 PM 41.3500 -77.6039 272° West 200 230 14,400  Descending Cleveland Center
Sun 02:13:48 PM 41.3519 -77.6814 272° West 200 230 14,500  Climbing Cleveland Center
Sun 02:14:48 PM 41.3539 -77.7558 272° West 200 230 14,400  Descending Cleveland Center
Sun 02:15:48 PM 41.3578 -77.8306 274° West 200 230 14,500  Climbing Cleveland Center
Sun 02:16:48 PM 41.3597 -77.9053 272° West 200 230 14,400  Descending Cleveland Center
Sun 02:17:48 PM 41.3633 -77.9797 274° West 200 230 14,500 50 Climbing Cleveland Center
Sun 02:18:48 PM 41.3650 -78.0544 272° West 200 230 14,500  Level Cleveland Center
Sun 02:19:48 PM 41.3686 -78.1261 274° West 200 230 14,500  Level Cleveland Center
Sun 02:20:48 PM 41.3703 -78.2008 272° West 200 230 14,500  Level Cleveland Center
Sun 02:21:48 PM 41.3719 -78.2839 272° West 200 230 14,500  Level Cleveland Center
Sun 02:22:48 PM 41.3756 -78.3583 274° West 200 230 14,500  Level Cleveland Center
Sun 02:23:48 PM 41.3792 -78.4331 274° West 200 230 14,500 -50 Level Cleveland Center
Sun 02:24:48 PM 41.3806 -78.5075 271° West 200 230 14,400 -50 Descending Cleveland Center
Sun 02:25:48 PM 41.3817 -78.5822 271° West 200 230 14,400 50 Level Cleveland Center
Sun 02:26:48 PM 41.3853 -78.6569 274° West 200 230 14,500 50 Climbing Cleveland Center
Sun 02:27:48 PM 41.3864 -78.7317 271° West 200 230 14,500 -50 Level Cleveland Center
Sun 02:28:48 PM 41.3897 -78.8061 273° West 200 230 14,400  Descending Cleveland Center
Sun 02:29:48 PM 41.3908 -78.8808 271° West 200 230 14,500  Climbing Cleveland Center
Sun 02:30:48 PM 41.3939 -78.9583 273° West 200 230 14,400  Descending Cleveland Center
Sun 02:31:48 PM 41.3950 -79.0303 271° West 200 230 14,500  Climbing Cleveland Center
Sun 02:32:48 PM 41.3981 -79.1050 273° West 205 236 14,400  Descending Cleveland Center
Sun 02:33:48 PM 41.3989 -79.1714 271° West 205 236 14,500  Climbing Cleveland Center
Sun 02:34:48 PM 41.4019 -79.2461 273° West 200 230 14,400 -50 Descending Cleveland Center
Sun 02:35:48 PM 41.4028 -79.3181 271° West 200 230 14,400 50 Level Cleveland Center
Sun 02:36:48 PM 41.4056 -79.3928 273° West 195 224 14,500  Climbing Cleveland Center
Sun 02:37:48 PM 41.4064 -79.4703 271° West 195 224 14,400  Descending Cleveland Center
Sun 02:38:48 PM 41.4092 -79.5450 273° West 195 224 14,500  Climbing Cleveland Center
Sun 02:39:48 PM 41.4097 -79.6197 271° West 195 224 14,400  Descending Cleveland Center
Sun 02:40:48 PM 41.4125 -79.6972 273° West 201 231 14,500 50 Climbing Cleveland Center
Sun 02:41:48 PM 41.4131 -79.7719 271° West 201 231 14,500  Level Cleveland Center
Sun 02:42:48 PM 41.4156 -79.8467 273° West 201 231 14,500  Level Cleveland Center
Sun 02:43:48 PM 41.4142 -79.9242 269° West 201 231 14,500  Level Cleveland Center
Sun 02:44:48 PM 41.4167 -80.0044 272° West 201 231 14,500  Level Cleveland Center
Sun 02:45:48 PM 41.4189 -80.0764 272° West 201 231 14,500  Level Cleveland Center
Sun 02:46:48 PM 41.4192 -80.1511 270° West 201 231 14,500  Level Cleveland Center
Sun 02:47:48 PM 41.4236 -80.2314 274° West 206 237 14,500  Level Cleveland Center
Sun 02:48:48 PM 41.4219 -80.3064 268° West 206 237 14,500  Level Cleveland Center
Sun 02:49:48 PM 41.4219 -80.3783 270° West 211 243 14,500  Level Cleveland Center
Sun 02:50:48 PM 41.4242 -80.4586 272° West 211 243 14,500  Level Cleveland Center
Sun 02:51:48 PM 41.4264 -80.5361 272° West 211 243 14,500 -200 Level Cleveland Center
Sun 02:52:48 PM 41.4264 -80.6136 270° West 216 249 14,100 -450 Descending Cleveland Center
Sun 02:53:48 PM 41.4283 -80.6994 272° West 221 254 13,600 -500 Descending Cleveland Center
Sun 02:54:48 PM 41.4283 -80.7797 270° West 221 254 13,100 -550 Descending Cleveland Center
Sun 02:55:48 PM 41.4281 -80.8628 270° West 226 260 12,500 -450 Descending Cleveland Center
Sun 02:56:48 PM 41.4319 -80.9431 274° West 226 260 12,200 -400 Descending Cleveland Center
Sun 02:57:48 PM 41.4317 -81.0236 270° West 221 254 11,700 -505 Descending Cleveland Center
Sun 02:58:23 PM 41.4294 -81.0678 266° West 215 247 11,400 -500 Descending Cleveland Center
Sun 02:58:48 PM 41.4314 -81.1039 274° West 221 254 11,200 -545 Descending Cleveland Center
Sun 02:59:18 PM 41.4311 -81.1425 269° West 218 251 10,900 -500 Descending Cleveland Center
Sun 02:59:48 PM 41.4311 -81.1842 270° West 216 249 10,700 67 Descending Cleveland Center
Sun 03:00:48 PM 41.4306 -81.2589 269° West 216 249 11,000 198 Climbing Cleveland Center
Sun 03:01:19 PM 41.4325 -81.2950 274° West 194 223 11,000 -100 Level Cleveland Center
Sun 03:01:48 PM 41.4322 -81.3225 269° West 205 236 10,900 -90 Descending Cleveland Center
Sun 03:02:26 PM 41.4319 -81.3725 270° West 193 222 10,900 100 Level Cleveland Center
Sun 03:02:48 PM 41.4317 -81.3947 269° West 196 226 11,000  Climbing Cleveland Center
Sun 03:03:21 PM 41.4314 -81.4389 270° West 194 223 10,900 -100 Descending Cleveland Center
Sun 03:03:48 PM 41.4333 -81.4667 275° West 196 226 10,900  Level Cleveland Center
Sun 03:04:22 PM 41.4331 -81.5108 270° West 193 222 10,900  Level Cleveland Center
Sun 03:04:48 PM 41.4328 -81.5358 269° West 196 226 10,900 -400 Level Cleveland Center
Sun 03:05:22 PM 41.4322 -81.5883 269° West 198 228 10,500 -600 Descending Cleveland Center
Sun 03:05:48 PM 41.4342 -81.6106 277° West 202 232 10,300 -590 Descending Cleveland Center
Sun 03:06:23 PM 41.4358 -81.6689 272° West 221 254 9,900 -600 Descending Cleveland Center
Sun 03:06:48 PM 41.4356 -81.6911 269° West 214 246 9,700 -689 Descending Cleveland Center
Sun 03:07:24 PM 41.4350 -81.7492 269° West 227 261 9,200 -700 Descending Cleveland Center
Sun 03:07:48 PM 41.4367 -81.7742 275° West 220 253 9,000 -590 Descending Cleveland Center
Sun 03:08:25 PM 41.4361 -81.8294 269° West 225 259 8,600 -684 Descending Cleveland Center
Sun 03:10:26 PM 41.4322 -81.9983 268° West 213 245 7,200 -692 Descending Cleveland Center
Sun 03:11:27 PM 41.4353 -82.0761 273° West 211 243 6,500 -639 Descending Cleveland Center
Sun 03:12:28 PM 41.4344 -82.1508 269° West 204 235 5,900 -446 Descending Cleveland Center
Sun 03:13:28 PM 41.4314 -82.2200 267° West 179 206 5,600 -496 Descending Cleveland Center
Sun 03:14:29 PM 41.4344 -82.2919 273° West 192 221 4,900 -689 Descending Cleveland Center
Sun 03:16:00 PM 41.4339 -82.4578 270° West  Level FlightAware
Sun 03:23:00 PM 41.4333 -82.6500 270° West  Level FlightAware
Sun 03:24:00 PM 41.4334 -82.6523 270° West  Level Estimated
Sun 03:25:00 PM 41.4333 -82.6500 270° West  Level FlightAware
Sun 03:26:00 PM 41.4334 -82.6523 270° West  Level Estimated

Login

Don't have an account? Register now (free) for customized features, flight alerts, and more!